createdAt,value
2024-05-09T00:00:40.535Z,54
2024-05-09T00:05:17.109Z,54
2024-05-09T00:10:41.003Z,53
2024-05-09T00:15:16.805Z,54
2024-05-09T00:20:51.476Z,53
2024-05-09T00:25:18.619Z,53
2024-05-09T00:30:45.514Z,53
2024-05-09T00:35:19.046Z,54
2024-05-09T00:40:38.608Z,54
2024-05-09T00:45:18.341Z,54
2024-05-09T00:50:39.422Z,53
2024-05-09T00:55:18.524Z,54
2024-05-09T01:00:55.510Z,54
2024-05-09T01:05:19.269Z,54
2024-05-09T01:10:50.915Z,54
2024-05-09T01:15:22.204Z,54
2024-05-09T01:20:43.990Z,54
2024-05-09T01:25:14.411Z,54
2024-05-09T01:30:40.986Z,54
2024-05-09T01:35:18.314Z,54
2024-05-09T01:40:40.350Z,54
2024-05-09T01:45:14.683Z,54
2024-05-09T01:50:41.212Z,54
2024-05-09T01:55:26.609Z,54
2024-05-09T02:00:41.250Z,54
2024-05-09T02:05:21.593Z,54
2024-05-09T02:10:45.954Z,53
2024-05-09T02:15:16.164Z,54
2024-05-09T02:20:36.480Z,52
2024-05-09T02:25:22.141Z,54
2024-05-09T02:30:47.204Z,54
2024-05-09T02:35:18.870Z,54
2024-05-09T02:40:37.382Z,54
2024-05-09T02:45:19.855Z,54
2024-05-09T02:50:37.640Z,54
2024-05-09T02:55:16.183Z,54
2024-05-09T03:00:44.397Z,53
2024-05-09T03:05:14.857Z,54
2024-05-09T03:15:19.932Z,53
2024-05-09T03:20:40.147Z,53
2024-05-09T03:25:24.504Z,53
2024-05-09T03:30:39.980Z,53
2024-05-09T03:35:16.685Z,53
2024-05-09T03:40:43.805Z,52
2024-05-09T03:45:14.010Z,53
2024-05-09T03:50:39.570Z,53
2024-05-09T03:55:14.736Z,53
2024-05-09T04:00:46.049Z,54
2024-05-09T04:05:16.905Z,53
2024-05-09T04:10:34.989Z,53
2024-05-09T04:15:16.985Z,53
2024-05-09T04:20:38.737Z,52
2024-05-09T04:25:20.363Z,53
2024-05-09T04:30:45.769Z,53
2024-05-09T04:35:17.267Z,53
2024-05-09T04:40:38.115Z,53
2024-05-09T04:45:14.563Z,53
2024-05-09T04:50:36.828Z,52
2024-05-09T04:55:14.596Z,53
2024-05-09T05:00:46.734Z,53
2024-05-09T05:05:21.187Z,53
2024-05-09T05:10:38.360Z,53
2024-05-09T05:15:14.369Z,52
2024-05-09T05:20:34.687Z,53
2024-05-09T05:25:21.849Z,53
2024-05-09T05:30:34.482Z,53
2024-05-09T05:35:14.825Z,52
2024-05-09T05:40:35.511Z,53
2024-05-09T05:45:29.391Z,53
2024-05-09T05:50:49.499Z,53
2024-05-09T05:55:16.455Z,53
2024-05-09T06:00:40.722Z,52
2024-05-09T06:05:14.775Z,53
2024-05-09T06:10:41.352Z,52
2024-05-09T06:15:16.363Z,53
2024-05-09T06:20:37.788Z,52
2024-05-09T06:25:18.676Z,53
2024-05-09T06:30:43.350Z,53
2024-05-09T06:35:20.215Z,54
2024-05-09T06:40:39.479Z,52
2024-05-09T06:45:13.918Z,53
2024-05-09T06:50:41.315Z,52
2024-05-09T06:55:14.450Z,54
2024-05-09T07:00:39.579Z,54
2024-05-09T07:05:18.205Z,53
2024-05-09T07:10:35.904Z,53
2024-05-09T07:15:20.396Z,54
2024-05-09T07:20:36.656Z,54
2024-05-09T07:25:16.642Z,54
2024-05-09T07:30:35.301Z,54
2024-05-09T07:35:14.963Z,53
2024-05-09T07:40:36.419Z,56
2024-05-09T07:48:28.269Z,56
2024-05-09T07:55:21.608Z,57
2024-05-09T08:00:31.910Z,57
2024-05-09T08:05:19.129Z,58
2024-05-09T08:10:30.523Z,57
2024-05-09T08:15:14.559Z,57
2024-05-09T08:20:33.445Z,58
2024-05-09T08:25:15.190Z,57
2024-05-09T08:30:33.782Z,57
2024-05-09T08:35:14.122Z,57
2024-05-09T08:40:37.049Z,57
2024-05-09T08:45:18.411Z,56
2024-05-09T08:50:43.588Z,57
2024-05-09T08:55:18.744Z,56
2024-05-09T09:00:38.043Z,58
2024-05-09T09:05:17.642Z,55
2024-05-09T09:10:32.386Z,56
2024-05-09T09:15:22.704Z,57
2024-05-09T09:20:44.562Z,56
2024-05-09T09:25:20.071Z,56
2024-05-09T09:30:40.534Z,55
2024-05-09T09:35:32.404Z,54
2024-05-09T09:40:34.784Z,54
2024-05-09T09:45:23.562Z,52
2024-05-09T09:50:44.755Z,54
2024-05-09T09:55:15.151Z,53
2024-05-09T10:00:35.992Z,53
2024-05-09T10:05:19.478Z,52
2024-05-09T10:10:33.055Z,53
2024-05-09T10:15:19.343Z,54
2024-05-09T10:20:51.444Z,52
2024-05-09T10:25:25.387Z,53
2024-05-09T10:30:59.191Z,54
2024-05-09T10:35:23.098Z,52
2024-05-09T10:40:50.197Z,55
2024-05-09T10:45:20.880Z,54
2024-05-09T10:50:38.437Z,53
2024-05-09T10:55:20.328Z,54
2024-05-09T11:00:42.862Z,53
2024-05-09T11:05:19.514Z,53
2024-05-09T11:10:33.803Z,55
2024-05-09T11:15:18.027Z,55
2024-05-09T11:20:51.672Z,55
2024-05-09T11:25:23.214Z,54
2024-05-09T11:30:44.045Z,56
2024-05-09T11:35:14.142Z,55
2024-05-09T11:40:36.735Z,55
2024-05-09T11:45:15.952Z,55
2024-05-09T11:50:42.701Z,56
2024-05-09T11:55:16.152Z,55
2024-05-09T12:00:37.658Z,56
2024-05-09T12:05:15.495Z,56
2024-05-09T12:10:45.258Z,55
2024-05-09T12:15:17.021Z,54
2024-05-09T12:20:40.506Z,54
2024-05-09T12:25:19.144Z,50
2024-05-09T12:30:39.130Z,52
2024-05-09T12:35:14.126Z,52
2024-05-09T12:40:55.255Z,51
2024-05-09T12:45:18.352Z,51
2024-05-09T12:50:48.271Z,53
2024-05-09T12:55:25.166Z,53
2024-05-09T13:00:34.186Z,53
2024-05-09T13:05:20.614Z,53
2024-05-09T13:10:25.744Z,54
2024-05-09T13:15:16.751Z,53
2024-05-09T13:20:43.498Z,52
2024-05-09T13:25:17.034Z,53
2024-05-09T13:30:38.705Z,53
2024-05-09T13:35:16.126Z,54
2024-05-09T13:40:36.117Z,54
2024-05-09T13:45:17.901Z,53
2024-05-09T13:50:42.214Z,54
2024-05-09T13:55:16.896Z,54
2024-05-09T14:00:49.520Z,53
2024-05-09T14:05:21.503Z,53
2024-05-09T14:10:45.217Z,54
2024-05-09T14:15:14.828Z,54
2024-05-09T14:20:37.011Z,54
2024-05-09T14:25:16.934Z,55
2024-05-09T14:30:48.849Z,55
2024-05-09T14:35:14.175Z,55
2024-05-09T14:40:44.441Z,55
2024-05-09T14:45:16.611Z,54
2024-05-09T14:50:43.258Z,55
2024-05-09T14:55:18.896Z,55
2024-05-09T15:00:50.005Z,54
2024-05-09T15:05:21.411Z,54
2024-05-09T15:10:40.793Z,55
2024-05-09T15:15:16.033Z,54
2024-05-09T15:20:38.026Z,55
2024-05-09T15:25:19.126Z,54
2024-05-09T15:30:34.415Z,54
2024-05-09T15:35:16.381Z,54
2024-05-09T15:40:41.360Z,54
2024-05-09T15:45:14.596Z,54
2024-05-09T15:50:38.737Z,53
2024-05-09T15:55:18.731Z,54
2024-05-09T16:00:52.364Z,53
2024-05-09T16:05:18.497Z,54
2024-05-09T16:10:34.293Z,54
2024-05-09T16:15:20.541Z,54
2024-05-09T16:20:50.726Z,53
2024-05-09T16:25:17.615Z,54
2024-05-09T16:30:48.178Z,54
2024-05-09T16:35:18.785Z,53
2024-05-09T16:40:42.937Z,54
2024-05-09T16:45:18.014Z,53
2024-05-09T16:50:32.995Z,53
2024-05-09T16:55:19.446Z,53
2024-05-09T17:00:53.087Z,55
2024-05-09T17:05:18.262Z,55
2024-05-09T17:10:44.557Z,54
2024-05-09T17:15:18.855Z,56
2024-05-09T17:20:38.613Z,57
2024-05-09T17:25:25.663Z,57
2024-05-09T17:30:43.368Z,57
2024-05-09T17:35:15.924Z,56
2024-05-09T17:40:39.890Z,57
2024-05-09T17:45:16.219Z,57
2024-05-09T17:50:37.656Z,57
2024-05-09T17:55:17.310Z,57
2024-05-09T18:00:40.195Z,56
2024-05-09T18:05:17.950Z,56
2024-05-09T18:10:37.859Z,56
2024-05-09T18:15:18.304Z,56
2024-05-09T18:20:40.981Z,56
2024-05-09T18:25:23.153Z,56
2024-05-09T18:30:38.234Z,56
2024-05-09T18:35:14.724Z,57
2024-05-09T18:40:36.984Z,56
2024-05-09T18:45:18.417Z,56
2024-05-09T18:50:43.001Z,56
2024-05-09T18:55:16.405Z,58
2024-05-09T19:00:41.726Z,57
2024-05-09T19:05:23.751Z,58
2024-05-09T19:10:26.384Z,58
2024-05-09T19:15:18.267Z,57
2024-05-09T19:20:40.532Z,57
2024-05-09T19:25:20.876Z,57
2024-05-09T19:30:43.177Z,58
2024-05-09T19:35:14.512Z,58
2024-05-09T19:40:44.110Z,58
2024-05-09T19:45:14.259Z,57
2024-05-09T19:50:45.126Z,57
2024-05-09T19:55:20.839Z,57
2024-05-09T20:00:38.234Z,57
2024-05-09T20:05:23.891Z,55
2024-05-09T20:10:42.218Z,56
2024-05-09T20:15:16.506Z,56
2024-05-09T20:20:45.920Z,56
2024-05-09T20:25:19.069Z,56
2024-05-09T20:30:41.838Z,55
2024-05-09T20:35:16.057Z,57
2024-05-09T20:40:46.125Z,57
2024-05-09T20:45:18.280Z,56
2024-05-09T20:50:42.888Z,56
2024-05-09T20:55:14.626Z,56
2024-05-09T21:01:00.125Z,56
2024-05-09T21:05:21.749Z,56
2024-05-09T21:10:35.228Z,55
2024-05-09T21:15:16.093Z,56
2024-05-09T21:20:43.930Z,54
2024-05-09T21:25:20.311Z,56
2024-05-09T21:30:43.080Z,55
2024-05-09T21:35:22.679Z,56
2024-05-09T21:40:48.339Z,55
2024-05-09T21:45:16.410Z,55
2024-05-09T21:50:32.156Z,55
2024-05-09T21:55:15.320Z,54
2024-05-09T22:00:39.747Z,55
2024-05-09T22:05:15.342Z,55
2024-05-09T22:10:46.517Z,55
2024-05-09T22:15:14.550Z,55
2024-05-09T22:20:46.982Z,54
2024-05-09T22:25:16.491Z,54
2024-05-09T22:30:40.627Z,54
2024-05-09T22:35:17.023Z,54
2024-05-09T22:40:47.004Z,54
2024-05-09T22:45:15.943Z,54
2024-05-09T22:50:38.190Z,54
2024-05-09T22:55:20.282Z,54
2024-05-09T23:00:32.680Z,54
2024-05-09T23:05:23.938Z,54
2024-05-09T23:10:48.698Z,54
2024-05-09T23:15:18.104Z,54
2024-05-09T23:20:39.128Z,54
2024-05-09T23:25:16.912Z,53
2024-05-09T23:30:42.388Z,52
2024-05-09T23:35:17.184Z,53
2024-05-09T23:40:40.210Z,53
2024-05-09T23:45:14.425Z,53
2024-05-09T23:50:57.209Z,53
2024-05-09T23:55:22.907Z,53
